Time;durP1;ratioP1;P1;durP2;ratioP2;P2;SDS_P1;SDS_P2;PMS_P1;PMS_P2;Temp;Humidity;BMP_temperature;BMP_pressure;BME280_temperature;BME280_humidity;BME280_pressure;Samples;Min_cycle;Max_cycle;Signal;HPM_P1;HPM_P2
2021/11/12 00:04:34;;;;;;;12.95;7.92;;;;;;;1.94;74.27;100885.76;1718161;81;20983;-68
2021/11/12 00:12:26;;;;;;;12.03;6.30;;;;;;;1.88;74.44;100879.91;1729152;81;21066;-67
2021/11/12 00:14:54;;;;;;;8.38;5.62;;;;;;;1.85;74.44;100876.12;1725176;81;21003;-67
2021/11/12 00:17:28;;;;;;;12.05;7.40;;;;;;;1.81;74.50;100877.11;1739335;81;21009;-67
2021/11/12 00:19:53;;;;;;;13.25;8.00;;;;;;;1.77;74.58;100868.56;1734431;81;21843;-69
2021/11/12 00:22:23;;;;;;;14.40;8.60;;;;;;;1.77;74.69;100867.27;1732836;81;21009;-68
2021/11/12 00:24:53;;;;;;;14.75;8.65;;;;;;;1.74;74.75;100862.17;1752998;81;20985;-68
2021/11/12 00:27:22;;;;;;;16.27;9.33;;;;;;;1.73;74.84;100865.66;1750903;81;20993;-68
2021/11/12 00:40:10;;;;;;;12.13;7.55;;;;;;;1.62;75.27;100858.22;1746650;81;21590;-69
2021/11/12 00:47:37;;;;;;;12.37;7.37;;;;;;;1.59;75.46;100849.68;1747861;81;21041;-68
2021/11/12 00:50:09;;;;;;;10.68;6.58;;;;;;;1.56;75.52;100846.73;1757794;81;21438;-68
2021/11/12 00:55:07;;;;;;;12.53;7.50;;;;;;;1.53;75.67;100848.58;1727195;81;21105;-70
2021/11/12 00:57:35;;;;;;;12.70;8.15;;;;;;;1.50;75.73;100847.39;1733278;81;22645;-68
2021/11/12 01:00:05;;;;;;;18.10;11.48;;;;;;;1.48;75.76;100838.80;1751877;81;21046;-68
2021/11/12 01:02:33;;;;;;;15.53;8.83;;;;;;;1.45;75.85;100835.85;1751807;81;20953;-68
2021/11/12 01:05:00;;;;;;;12.00;8.83;;;;;;;1.45;75.88;100833.25;1747325;81;20995;-68
2021/11/12 01:07:29;;;;;;;12.53;8.53;;;;;;;1.46;75.93;100833.64;1760694;81;21039;-68
2021/11/12 01:09:57;;;;;;;10.98;7.75;;;;;;;1.46;75.94;100827.14;1708856;81;21875;-69
2021/11/12 01:12:25;;;;;;;12.75;7.45;;;;;;;1.47;75.93;100827.53;1721499;81;20953;-69
2021/11/12 01:14:53;;;;;;;11.60;7.97;;;;;;;1.48;75.98;100823.17;1706043;82;21004;-68
2021/11/12 01:17:20;;;;;;;15.00;8.05;;;;;;;1.48;75.99;100824.47;1727431;83;21007;-68
2021/11/12 01:19:47;;;;;;;12.05;7.15;;;;;;;1.49;76.05;100822.27;1736463;81;21509;-68
2021/11/12 01:22:14;;;;;;;12.93;8.00;;;;;;;1.49;76.06;100826.17;1749180;81;22207;-68
2021/11/12 01:24:40;;;;;;;12.68;7.65;;;;;;;1.48;76.12;100816.21;1736350;81;21004;-68
2021/11/12 01:27:07;;;;;;;11.08;7.85;;;;;;;1.49;76.18;100816.61;1727473;83;21459;-68
2021/11/12 01:29:35;;;;;;;14.40;8.93;;;;;;;1.49;76.20;100812.70;1737536;81;20975;-69
2021/11/12 01:32:21;;;;;;;15.08;9.33;;;;;;;1.50;76.21;100804.44;1754038;81;20916;-68
2021/11/12 01:34:50;;;;;;;13.05;8.10;;;;;;;1.51;76.24;100803.53;1758850;81;21804;-68
2021/11/12 01:37:20;;;;;;;15.28;9.28;;;;;;;1.51;76.27;100802.23;1735364;81;20971;-69
2021/11/12 01:39:52;;;;;;;16.85;8.78;;;;;;;1.51;76.25;100803.53;1752750;80;20947;-68
2021/11/12 01:42:17;;;;;;;13.98;8.75;;;;;;;1.50;76.28;100801.38;1749775;81;20944;-68
2021/11/12 01:44:56;;;;;;;15.32;8.55;;;;;;;1.48;76.34;100797.14;1761435;81;21012;-68
2021/11/12 01:47:32;;;;;;;10.88;7.28;;;;;;;1.48;76.44;100793.23;1745638;81;21932;-68
2021/11/12 01:49:54;;;;;;;12.43;7.87;;;;;;;1.46;76.46;100788.09;1740046;81;20984;-68
2021/11/12 01:53:01;;;;;;;11.83;6.97;;;;;;;1.48;76.49;100789.34;1754183;81;21117;-68
2021/11/12 01:57:50;;;;;;;10.82;6.78;;;;;;;1.50;76.54;100788.83;1727019;81;20935;-67
2021/11/12 02:00:11;;;;;;;13.48;7.17;;;;;;;1.50;76.57;100784.91;1721604;81;27617;-69
2021/11/12 02:02:38;;;;;;;10.00;6.70;;;;;;;1.51;76.56;100785.31;1740850;81;21039;-70
2021/11/12 02:05:05;;;;;;;12.28;7.28;;;;;;;1.49;76.53;100778.86;1740747;81;21078;-68
2021/11/12 02:07:35;;;;;;;12.47;6.75;;;;;;;1.49;76.57;100782.77;1744959;81;21015;-69
2021/11/12 02:10:07;;;;;;;10.60;6.42;;;;;;;1.50;76.61;100784.47;1761491;81;20983;-69
2021/11/12 02:15:24;;;;;;;12.23;6.62;;;;;;;1.51;76.62;100780.11;1761295;81;21395;-68
2021/11/12 02:18:07;;;;;;;10.80;6.05;;;;;;;1.49;76.64;100778.86;1761325;81;20985;-68
2021/11/12 02:20:41;;;;;;;11.33;6.35;;;;;;;1.49;76.67;100780.16;1756956;80;21070;-69
2021/11/12 02:23:05;;;;;;;8.80;5.85;;;;;;;1.49;76.71;100771.51;1751738;81;21043;-68
2021/11/12 02:28:08;;;;;;;12.28;6.72;;;;;;;1.48;76.72;100766.75;1761242;81;20956;-69
2021/11/12 02:30:32;;;;;;;10.75;6.35;;;;;;;1.48;76.74;100764.61;1739486;81;21002;-68
2021/11/12 02:33:17;;;;;;;11.90;6.90;;;;;;;1.46;76.75;100765.97;1746679;81;21051;-68
2021/11/12 02:36:01;;;;;;;10.75;6.25;;;;;;;1.46;76.74;100754.70;1733621;81;20948;-69
2021/11/12 02:38:29;;;;;;;7.30;4.72;;;;;;;1.44;76.75;100762.55;1733213;81;21952;-68
2021/11/12 02:40:57;;;;;;;12.23;6.67;;;;;;;1.42;76.74;100753.95;1739221;81;21720;-68
2021/11/12 02:43:23;;;;;;;10.60;6.37;;;;;;;1.41;76.77;100754.85;1731436;81;20949;-69
2021/11/12 02:45:50;;;;;;;11.18;6.45;;;;;;;1.39;76.80;100752.77;1740468;81;20995;-68
2021/11/12 02:48:17;;;;;;;11.43;6.75;;;;;;;1.37;76.79;100751.98;1774598;80;20953;-69
2021/11/12 02:50:44;;;;;;;9.15;5.72;;;;;;;1.37;76.81;100758.48;1707109;81;21846;-68
2021/11/12 02:53:17;;;;;;;8.53;6.08;;;;;;;1.36;76.84;100748.98;1730630;81;21067;-68
2021/11/12 02:55:40;;;;;;;9.98;6.00;;;;;;;1.35;76.90;100749.44;1754540;81;21048;-69
2021/11/12 02:58:07;;;;;;;9.28;6.22;;;;;;;1.36;76.94;100750.28;1754544;81;21008;-69
2021/11/12 03:00:37;;;;;;;9.85;6.90;;;;;;;1.35;76.99;100749.86;1758450;81;21462;-69
2021/11/12 03:03:04;;;;;;;11.55;6.97;;;;;;;1.36;77.01;100745.08;1754437;80;22228;-69
2021/11/12 03:05:33;;;;;;;11.25;6.28;;;;;;;1.36;77.08;100740.72;1755504;81;21359;-69
2021/11/12 03:08:00;;;;;;;9.18;6.12;;;;;;;1.36;77.11;100739.88;1758578;81;20996;-69
2021/11/12 03:10:27;;;;;;;11.18;6.45;;;;;;;1.35;77.10;100731.64;1758528;81;21048;-70
2021/11/12 03:12:54;;;;;;;11.08;6.47;;;;;;;1.37;77.16;100723.34;1736494;81;20967;-68
2021/11/12 03:15:21;;;;;;;12.53;6.67;;;;;;;1.35;77.16;100720.80;1757639;81;22241;-68
2021/11/12 03:17:51;;;;;;;13.13;6.65;;;;;;;1.35;77.17;100716.02;1758482;81;21022;-70
2021/11/12 03:20:18;;;;;;;10.60;6.70;;;;;;;1.33;77.19;100711.33;1757781;80;21095;-68
2021/11/12 03:22:53;;;;;;;11.80;6.60;;;;;;;1.31;77.22;100708.79;1744051;81;21042;-69
2021/11/12 03:26:10;;;;;;;8.88;6.10;;;;;;;1.30;77.22;100703.64;1753255;81;20966;-69
2021/11/12 03:27:51;;;;;;;10.03;6.12;;;;;;;1.29;77.22;100704.55;1739055;81;22499;-69
2021/11/12 03:49:58;;;;;;;8.88;6.00;;;;;;;1.14;77.35;100685.97;1742473;81;21009;-68
2021/11/12 04:00:13;;;;;;;11.63;7.37;;;;;;;1.06;77.46;100691.92;1766773;81;21007;-68
2021/11/12 04:05:11;;;;;;;11.45;6.67;;;;;;;1.02;77.51;100691.61;1789075;80;20940;-69
2021/11/12 04:17:01;;;;;;;12.50;6.60;;;;;;;1.00;77.51;100684.31;1769733;81;22269;-68
2021/11/12 05:12:41;;;;;;;12.70;8.15;;;;;;;0.57;78.03;100736.90;1741455;81;21012;-68
2021/11/12 05:26:16;;;;;;;13.50;8.35;;;;;;;0.51;78.03;100734.07;1746920;81;20979;-69
2021/11/12 05:44:40;;;;;;;15.18;9.58;;;;;;;0.54;78.43;100739.61;1754044;81;20964;-69
2021/11/12 05:49:45;;;;;;;14.07;8.98;;;;;;;0.57;78.48;100738.20;1739886;81;21099;-69
2021/11/12 05:55:10;;;;;;;14.33;9.65;;;;;;;0.64;78.55;100738.41;1761660;81;21841;-70
2021/11/12 05:57:38;;;;;;;17.52;10.95;;;;;;;0.68;78.55;100741.33;1752068;81;20952;-68
2021/11/12 06:00:14;;;;;;;20.27;12.00;;;;;;;0.71;78.58;100737.77;1761727;81;20956;-69
2021/11/12 06:02:41;;;;;;;23.73;13.40;;;;;;;0.75;78.60;100739.35;1756144;81;21434;-68
2021/11/12 06:05:08;;;;;;;24.40;14.47;;;;;;;0.79;78.61;100738.37;1741622;81;21372;-69
2021/11/12 06:07:35;;;;;;;26.55;14.75;;;;;;;0.83;78.65;100740.80;1758484;81;21841;-69
2021/11/12 06:10:04;;;;;;;25.60;14.87;;;;;;;0.89;78.67;100733.71;1760747;81;20991;-68
2021/11/12 06:12:31;;;;;;;25.85;14.43;;;;;;;0.95;78.74;100726.53;1731890;82;21028;-68
2021/11/12 06:14:58;;;;;;;21.93;14.70;;;;;;;1.03;78.82;100727.57;1731524;83;21258;-68
2021/11/12 06:17:25;;;;;;;23.70;14.35;;;;;;;1.10;78.90;100724.72;1751799;81;21051;-69
2021/11/12 06:19:52;;;;;;;20.25;11.88;;;;;;;1.20;78.96;100729.14;1761789;81;21802;-69
2021/11/12 06:22:19;;;;;;;26.10;13.55;;;;;;;1.31;78.99;100719.66;1761741;81;21011;-67
2021/11/12 06:24:47;;;;;;;23.77;13.05;;;;;;;1.41;79.06;100720.56;1761741;81;21446;-68
2021/11/12 06:27:13;;;;;;;23.32;13.80;;;;;;;1.50;79.09;100715.48;1759185;81;21410;-69
2021/11/12 06:29:40;;;;;;;23.80;14.55;;;;;;;1.60;79.11;100712.94;1760474;81;21518;-69
2021/11/12 06:32:07;;;;;;;27.40;13.88;;;;;;;1.71;79.14;100700.81;1761005;81;21793;-69
2021/11/12 06:34:34;;;;;;;27.82;14.35;;;;;;;1.81;79.16;100703.46;1753321;81;21001;-68
2021/11/12 06:37:00;;;;;;;48.90;19.02;;;;;;;1.91;79.10;100709.17;1761685;81;21208;-68
2021/11/12 06:39:27;;;;;;;43.15;18.15;;;;;;;2.01;79.08;100714.42;1733911;81;20977;-68
2021/11/12 06:41:56;;;;;;;42.78;19.45;;;;;;;2.10;79.03;100708.01;1752203;81;21007;-67
2021/11/12 06:44:29;;;;;;;37.00;19.67;;;;;;;2.19;78.97;100705.04;1761950;81;22459;-69
2021/11/12 06:50:28;;;;;;;26.82;14.53;;;;;;;2.42;78.87;100707.59;1806132;79;20960;-70
2021/11/12 06:52:11;;;;;;;21.65;14.10;;;;;;;2.54;78.67;100701.03;1773926;80;21462;-69
2021/11/12 06:54:38;;;;;;;20.55;14.00;;;;;;;2.64;78.57;100702.34;1764301;80;21052;-67
2021/11/12 06:57:06;;;;;;;20.80;13.65;;;;;;;2.76;78.49;100702.28;1783186;80;21880;-68
2021/11/12 06:59:32;;;;;;;19.87;12.98;;;;;;;2.87;78.26;100698.76;1779855;80;21400;-69
2021/11/12 07:02:00;;;;;;;25.05;14.53;;;;;;;3.01;78.05;100705.56;1783160;80;20998;-69
2021/11/12 07:04:26;;;;;;;23.05;14.18;;;;;;;3.12;77.76;100698.57;1765195;80;20965;-70
2021/11/12 07:06:53;;;;;;;21.45;14.15;;;;;;;3.25;77.58;100695.80;1764268;81;21477;-70
2021/11/12 07:09:19;;;;;;;22.80;14.03;;;;;;;3.35;77.19;100686.64;1767535;80;22617;-69
2021/11/12 07:11:46;;;;;;;21.23;13.75;;;;;;;3.47;76.77;100692.23;1779302;80;21364;-68
2021/11/12 07:14:13;;;;;;;19.65;12.85;;;;;;;3.58;76.55;100696.53;1795625;80;21047;-69
2021/11/12 07:16:40;;;;;;;18.92;13.25;;;;;;;3.70;76.08;100695.97;1775340;80;21035;-69
2021/11/12 07:19:07;;;;;;;21.75;14.45;;;;;;;3.79;75.63;100690.33;1781546;80;21355;-70
2021/11/12 07:21:34;;;;;;;19.57;12.60;;;;;;;3.90;75.22;100687.20;1770989;80;21743;-69
2021/11/12 07:24:01;;;;;;;18.35;12.47;;;;;;;3.99;74.72;100688.08;1775355;80;21063;-70
2021/11/12 07:26:28;;;;;;;17.87;13.30;;;;;;;4.08;74.24;100685.50;1764224;80;21463;-70
2021/11/12 07:28:54;;;;;;;19.55;13.25;;;;;;;4.18;73.89;100685.45;1780167;80;21074;-69
2021/11/12 07:31:21;;;;;;;20.27;13.50;;;;;;;4.29;73.42;100687.08;1775776;80;21102;-68
2021/11/12 07:33:48;;;;;;;23.15;14.38;;;;;;;4.39;72.81;100678.32;1767909;80;21836;-73
2021/11/12 07:36:20;;;;;;;19.67;13.65;;;;;;;4.49;72.31;100676.48;1768152;80;21004;-69
2021/11/12 07:47:00;;;;;;;21.97;15.53;;;;;;;4.83;70.33;100670.42;1772715;80;23093;-70
2021/11/12 07:49:15;;;;;;;23.10;15.65;;;;;;;4.91;69.77;100675.24;1776622;80;21035;-70
2021/11/12 07:51:42;;;;;;;21.75;13.85;;;;;;;4.99;69.58;100670.93;1769606;80;21071;-71
2021/11/12 07:54:09;;;;;;;23.38;15.20;;;;;;;5.08;69.16;100673.08;1752953;80;21056;-70
2021/11/12 07:56:36;;;;;;;22.45;14.68;;;;;;;5.15;68.56;100673.14;1763597;80;21091;-67
2021/11/12 07:59:04;;;;;;;22.90;14.58;;;;;;;5.22;68.49;100669.75;1751774;80;21036;-67
2021/11/12 08:01:30;;;;;;;20.92;14.80;;;;;;;5.31;68.20;100674.52;1746598;82;21043;-67
2021/11/12 08:04:01;;;;;;;21.65;15.55;;;;;;;5.40;67.89;100663.52;1746318;82;34187;-68
2021/11/12 08:06:28;;;;;;;22.95;14.47;;;;;;;5.50;67.58;100663.44;1774425;80;21020;-67
2021/11/12 08:09:02;;;;;;;20.08;14.35;;;;;;;5.61;67.56;100655.84;1782946;80;21027;-67
2021/11/12 08:11:35;;;;;;;20.77;14.83;;;;;;;5.73;67.15;100655.16;1780926;80;23345;-68
2021/11/12 08:17:03;;;;;;;20.52;13.60;;;;;;;5.88;66.15;100652.14;1722168;80;21078;-69
2021/11/12 08:19:07;;;;;;;20.02;14.03;;;;;;;5.98;65.98;100655.13;1770873;80;21039;-69
2021/11/12 08:25:22;;;;;;;20.05;14.78;;;;;;;6.15;65.44;100656.34;1782710;80;21771;-70
2021/11/12 08:29:45;;;;;;;18.85;14.55;;;;;;;6.32;64.77;100642.28;1780643;80;21064;-69
2021/11/12 08:39:55;;;;;;;20.88;14.03;;;;;;;6.78;64.27;100639.59;1751814;81;20899;-69
2021/11/12 08:42:14;;;;;;;20.08;14.23;;;;;;;6.90;63.80;100644.11;1756197;80;21008;-69
2021/11/12 08:44:57;;;;;;;20.20;14.07;;;;;;;6.99;63.45;100640.09;1772001;80;21079;-66
2021/11/12 08:47:26;;;;;;;18.55;13.93;;;;;;;7.08;63.18;100638.23;1775271;80;21084;-68
2021/11/12 08:49:48;;;;;;;20.17;14.25;;;;;;;7.18;62.87;100638.04;1753576;80;22668;-68
2021/11/12 08:52:17;;;;;;;20.45;15.03;;;;;;;7.27;62.35;100624.81;1751833;81;21024;-68
2021/11/12 08:54:45;;;;;;;20.60;14.03;;;;;;;7.36;62.46;100622.94;1752232;81;21582;-68
2021/11/12 08:57:15;;;;;;;24.70;15.68;;;;;;;7.46;62.24;100620.95;1751867;80;21027;-67
2021/11/12 08:59:45;;;;;;;22.48;15.80;;;;;;;7.60;61.97;100621.85;1758394;80;21471;-68
2021/11/12 09:02:15;;;;;;;20.12;13.93;;;;;;;7.72;61.80;100625.89;1752844;80;21831;-69
2021/11/12 09:04:46;;;;;;;21.05;13.90;;;;;;;7.85;61.36;100631.20;1752119;81;21009;-69
2021/11/12 09:07:13;;;;;;;18.52;13.53;;;;;;;7.94;61.25;100631.92;1751871;81;21024;-68
2021/11/12 09:09:39;;;;;;;20.50;13.83;;;;;;;8.07;61.03;100631.13;1756464;80;21057;-69
2021/11/12 09:12:09;;;;;;;19.02;14.23;;;;;;;8.15;60.34;100627.05;1748442;80;21013;-70
2021/11/12 09:14:39;;;;;;;19.73;14.43;;;;;;;8.25;60.45;100620.72;1746323;82;22462;-69
2021/11/12 09:17:07;;;;;;;22.00;14.80;;;;;;;8.34;59.79;100618.80;1760949;80;21513;-69
2021/11/12 09:19:45;;;;;;;18.73;14.07;;;;;;;8.45;59.81;100614.16;1752125;80;21000;-69
2021/11/12 09:22:04;;;;;;;21.50;15.20;;;;;;;8.57;59.66;100615.97;1758740;80;21040;-69
2021/11/12 09:24:31;;;;;;;21.17;15.55;;;;;;;8.72;59.65;100612.31;1757995;80;21079;-70
2021/11/12 09:26:58;;;;;;;24.02;17.00;;;;;;;8.86;59.19;100608.73;1770480;80;22271;-69
2021/11/12 09:29:24;;;;;;;24.40;18.15;;;;;;;8.99;59.17;100610.06;1753421;80;21564;-68
2021/11/12 09:31:51;;;;;;;24.67;18.07;;;;;;;9.13;58.79;100612.57;1754177;80;21095;-68
2021/11/12 09:34:17;;;;;;;23.90;18.10;;;;;;;9.28;58.71;100610.67;1776991;80;21088;-67
2021/11/12 09:36:45;;;;;;;22.55;16.37;;;;;;;9.44;58.10;100607.30;1775028;80;21088;-68
2021/11/12 09:39:12;;;;;;;22.35;16.55;;;;;;;9.57;57.76;100610.77;1759162;80;23007;-68
2021/11/12 09:41:38;;;;;;;24.12;19.20;;;;;;;9.69;57.57;100609.88;1782949;80;20900;-67
2021/11/12 09:44:06;;;;;;;37.03;19.87;;;;;;;9.85;57.09;100611.43;1783029;80;21269;-68
2021/11/12 09:46:33;;;;;;;25.15;19.07;;;;;;;9.93;57.07;100609.89;1780502;80;20969;-69
2021/11/12 09:49:02;;;;;;;25.77;19.77;;;;;;;10.07;56.76;100620.77;1774425;80;21036;-70
2021/11/12 09:51:28;;;;;;;26.68;20.17;;;;;;;10.15;56.03;100605.70;1783000;80;21854;-68
2021/11/12 09:53:55;;;;;;;26.55;20.57;;;;;;;10.15;55.91;100603.06;1784199;80;20929;-71
2021/11/12 09:56:22;;;;;;;29.70;20.70;;;;;;;10.16;56.04;100604.27;1784307;80;21478;-69
2021/11/12 09:58:50;;;;;;;26.05;20.55;;;;;;;10.24;56.22;100605.89;1775449;80;20997;-69
2021/11/12 10:01:25;;;;;;;29.10;20.50;;;;;;;10.39;55.87;100598.61;1784852;80;20948;-69
2021/11/12 10:03:47;;;;;;;25.72;19.87;;;;;;;10.48;55.34;100595.28;1783805;80;21859;-68
2021/11/12 10:06:25;;;;;;;26.05;20.60;;;;;;;10.58;54.98;100592.78;1784201;80;20972;-69
2021/11/12 10:08:52;;;;;;;30.80;20.40;;;;;;;10.63;54.49;100595.93;1756135;80;21113;-69
2021/11/12 10:11:31;;;;;;;27.77;20.10;;;;;;;10.62;54.17;100590.29;1753201;81;21090;-68
2021/11/12 10:14:03;;;;;;;23.38;18.98;;;;;;;10.64;54.23;100584.88;1753346;81;21455;-70
2021/11/12 10:16:39;;;;;;;23.80;18.32;;;;;;;10.64;53.43;100579.13;1753309;81;21828;-69
2021/11/12 10:19:12;;;;;;;24.02;18.00;;;;;;;10.62;53.94;100576.24;1754081;80;21109;-69
2021/11/12 10:21:49;;;;;;;27.15;19.92;;;;;;;10.74;53.87;100578.78;1747788;82;21127;-68
2021/11/12 10:24:27;;;;;;;25.92;19.55;;;;;;;10.85;53.86;100575.30;1747339;82;20950;-69
2021/11/12 10:26:59;;;;;;;22.87;17.85;;;;;;;10.95;53.36;100577.59;1761302;80;21040;-70
2021/11/12 10:29:33;;;;;;;24.95;20.17;;;;;;;11.08;52.95;100574.83;1759187;80;21860;-67
2021/11/12 10:32:02;;;;;;;;;;;;;;;11.18;52.57;100573.98;1787022;80;20992;-67
2021/11/12 10:34:32;;;;;;;24.32;18.40;;;;;;;11.26;52.46;100576.52;1771771;80;20131;-67
2021/11/12 10:37:08;;;;;;;25.95;19.37;;;;;;;11.28;51.74;100574.58;1755740;80;21503;-68
2021/11/12 10:39:49;;;;;;;24.87;18.95;;;;;;;11.20;51.65;100577.02;1770467;80;20952;-67
2021/11/12 10:42:20;;;;;;;25.32;18.90;;;;;;;11.26;51.75;100578.67;1757130;80;22394;-67
2021/11/12 10:44:54;;;;;;;23.02;18.40;;;;;;;11.28;51.50;100573.26;1784370;80;20949;-67
2021/11/12 10:47:21;;;;;;;22.90;18.15;;;;;;;11.28;51.48;100568.80;1784384;80;21542;-67
2021/11/12 10:49:56;;;;;;;23.45;18.32;;;;;;;11.27;51.33;100575.06;1777141;80;21053;-68
2021/11/12 10:52:25;;;;;;;23.20;17.77;;;;;;;11.39;51.59;100571.47;1720184;81;21008;-67
2021/11/12 10:55:00;;;;;;;22.27;16.37;;;;;;;11.55;50.86;100572.87;1718140;83;21696;-67
2021/11/12 10:57:34;;;;;;;21.05;16.87;;;;;;;11.65;50.65;100568.52;1696042;82;20937;-67
2021/11/12 11:00:12;;;;;;;22.82;17.20;;;;;;;11.73;50.42;100555.51;1749261;81;21051;-68
2021/11/12 11:02:52;;;;;;;24.77;17.27;;;;;;;11.78;50.43;100559.96;1754814;80;21542;-67
2021/11/12 11:05:29;;;;;;;20.82;16.27;;;;;;;11.84;50.22;100563.45;1756890;80;21390;-67
2021/11/12 11:08:01;;;;;;;21.48;16.75;;;;;;;11.89;50.39;100562.60;1751983;82;21847;-67
2021/11/12 11:10:38;;;;;;;21.68;17.02;;;;;;;12.01;50.24;100569.53;1727136;81;20946;-67
2021/11/12 11:13:14;;;;;;;24.50;18.92;;;;;;;12.09;49.88;100566.73;1753031;81;20957;-67
2021/11/12 11:15:50;;;;;;;23.92;17.12;;;;;;;12.19;49.84;100565.84;1752335;80;21442;-68
2021/11/12 11:18:28;;;;;;;22.30;18.52;;;;;;;12.22;48.94;100560.28;1753704;80;21111;-70
2021/11/12 11:21:11;;;;;;;25.40;18.32;;;;;;;12.31;49.40;100562.16;1735472;81;22253;-70
2021/11/12 11:23:55;;;;;;;21.37;16.87;;;;;;;12.43;49.35;100556.31;1752493;81;21032;-68
2021/11/12 11:26:27;;;;;;;27.98;17.90;;;;;;;12.56;48.58;100559.63;1752867;81;21538;-68
2021/11/12 11:28:58;;;;;;;24.43;17.23;;;;;;;12.49;48.58;100555.81;1751863;81;21027;-67
2021/11/12 11:31:24;;;;;;;23.80;17.87;;;;;;;12.52;48.72;100556.87;1728217;80;21083;-69
2021/11/12 11:33:51;;;;;;;22.17;17.30;;;;;;;12.54;48.51;100554.08;1746724;81;21799;-68
2021/11/12 11:36:20;;;;;;;23.75;18.57;;;;;;;12.54;48.88;100544.32;1722714;82;21007;-68
2021/11/12 11:38:49;;;;;;;24.60;17.73;;;;;;;12.69;48.51;100544.84;1722634;82;21033;-68
2021/11/12 11:41:18;;;;;;;23.30;17.35;;;;;;;12.78;48.44;100548.52;1723318;81;21524;-68
2021/11/12 11:43:46;;;;;;;24.85;19.00;;;;;;;12.81;48.20;100553.06;1761048;80;21023;-67
2021/11/12 11:46:23;;;;;;;19.75;16.52;;;;;;;12.86;48.34;100556.66;1778434;80;24110;-67
2021/11/12 11:48:50;;;;;;;23.77;18.35;;;;;;;12.95;47.89;100552.37;1746027;81;21023;-67
2021/11/12 11:51:27;;;;;;;23.87;18.32;;;;;;;12.92;47.91;100552.62;1762645;80;21052;-69
2021/11/12 11:53:57;;;;;;;23.87;18.02;;;;;;;12.91;47.88;100547.80;1766769;80;21057;-67
2021/11/12 11:56:30;;;;;;;23.50;18.48;;;;;;;12.99;48.08;100545.82;1775766;80;21014;-67
2021/11/12 11:58:59;;;;;;;26.15;19.57;;;;;;;13.08;48.08;100539.72;1783289;80;22483;-69
2021/11/12 12:01:29;;;;;;;20.80;17.25;;;;;;;13.24;47.81;100544.56;1782977;80;21027;-67
2021/11/12 12:04:16;;;;;;;21.55;16.95;;;;;;;13.35;47.08;100544.45;1782958;80;21027;-67
2021/11/12 12:07:05;;;;;;;27.20;18.02;;;;;;;13.40;47.13;100547.03;1782141;80;21031;-67
2021/11/12 12:09:59;;;;;;;21.45;17.23;;;;;;;13.47;46.67;100539.38;1751929;81;21020;-68
2021/11/12 12:12:37;;;;;;;23.92;17.37;;;;;;;13.50;46.26;100544.89;1756887;80;22512;-67
2021/11/12 12:15:16;;;;;;;23.12;17.57;;;;;;;13.66;46.52;100544.73;1752485;80;21067;-67
2021/11/12 12:17:46;;;;;;;21.40;17.52;;;;;;;13.81;45.99;100541.69;1751589;80;21083;-66
2021/11/12 12:20:34;;;;;;;24.05;17.05;;;;;;;13.93;45.83;100541.89;1752106;81;21033;-67
2021/11/12 13:23:27;;;;;;;28.65;22.48;;;;;;;11.95;48.16;100575.31;1738631;80;21840;-68
2021/11/12 13:25:56;;;;;;;27.55;20.52;;;;;;;11.89;48.67;100577.64;1714665;83;21175;-68
2021/11/12 13:28:29;;;;;;;27.07;21.15;;;;;;;12.05;48.84;100574.07;1752570;81;21012;-70
2021/11/12 13:31:02;;;;;;;28.30;20.02;;;;;;;12.29;48.46;100576.52;1749089;81;21040;-69
2021/11/12 13:33:50;;;;;;;26.75;20.55;;;;;;;12.47;48.20;100563.05;1753019;81;21098;-69
2021/11/12 13:36:23;;;;;;;25.15;19.50;;;;;;;12.53;47.77;100563.84;1749213;81;21904;-69
2021/11/12 13:38:56;;;;;;;23.07;19.10;;;;;;;12.50;47.83;100563.27;1751288;81;20977;-69
2021/11/12 13:41:36;;;;;;;23.90;19.10;;;;;;;12.44;47.76;100568.59;1752367;81;22067;-67
2021/11/12 13:44:12;;;;;;;23.65;19.30;;;;;;;12.32;47.74;100570.95;1742336;80;21037;-68
2021/11/12 13:46:53;;;;;;;25.25;19.20;;;;;;;12.13;48.10;100573.45;1747200;81;20944;-68
2021/11/12 13:49:35;;;;;;;26.40;19.30;;;;;;;11.94;48.58;100582.90;1702331;81;22355;-67
2021/11/12 13:52:11;;;;;;;25.08;18.57;;;;;;;11.87;48.93;100594.97;1779898;80;21464;-67
2021/11/12 13:54:42;;;;;;;23.50;19.05;;;;;;;11.79;49.11;100591.23;1782961;80;21032;-68
2021/11/12 13:57:16;;;;;;;22.67;17.48;;;;;;;11.66;49.45;100591.36;1776002;79;21092;-68
2021/11/12 14:00:01;;;;;;;25.48;19.07;;;;;;;11.54;49.68;100593.67;1766938;80;21530;-68
2021/11/12 14:02:31;;;;;;;72.03;45.17;;;;;;;11.44;49.95;100599.70;1752183;81;21805;-67
2021/11/12 14:05:14;;;;;;;67.47;47.78;;;;;;;11.37;50.25;100598.97;1752013;81;21005;-67
2021/11/12 14:07:40;;;;;;;28.55;21.70;;;;;;;11.29;50.43;100598.28;1773320;80;21012;-68
2021/11/12 14:10:10;;;;;;;30.70;22.65;;;;;;;11.14;50.92;100603.44;1780133;80;21039;-68
2021/11/12 14:12:49;;;;;;;32.60;26.20;;;;;;;11.02;51.44;100605.72;1771215;80;21151;-68
2021/11/12 14:15:22;;;;;;;38.38;33.20;;;;;;;10.87;51.69;100611.22;1729920;81;21792;-67
2021/11/12 14:17:57;;;;;;;36.53;31.95;;;;;;;10.79;51.98;100618.04;1755793;80;21047;-67
2021/11/12 14:20:31;;;;;;;29.10;21.45;;;;;;;10.70;52.24;100614.78;1757293;80;21068;-67
2021/11/12 14:23:10;;;;;;;26.57;19.10;;;;;;;10.66;52.46;100618.14;1782193;80;21040;-68
2021/11/12 14:36:12;;;;;;;23.75;17.12;;;;;;;10.47;53.52;100631.89;1777787;80;21079;-67
2021/11/12 14:38:32;;;;;;;23.27;17.77;;;;;;;10.44;53.75;100635.25;1706384;80;21996;-67
2021/11/12 14:46:36;;;;;;;22.98;17.67;;;;;;;10.26;54.54;100644.89;1775714;80;21082;-68
2021/11/12 14:52:29;;;;;;;25.77;18.35;;;;;;;10.18;55.02;100659.09;1765002;80;21030;-68
2021/11/12 14:54:17;;;;;;;27.85;18.98;;;;;;;10.17;55.16;100663.17;1747408;80;21852;-66
2021/11/12 14:56:50;;;;;;;28.02;19.82;;;;;;;10.13;55.29;100661.21;1710602;81;21051;-67
2021/11/12 14:59:17;;;;;;;27.30;19.42;;;;;;;10.11;55.42;100661.81;1759227;81;21531;-67
2021/11/12 15:01:44;;;;;;;27.27;19.77;;;;;;;10.09;55.54;100672.96;1760913;80;21507;-68
2021/11/12 15:04:10;;;;;;;28.67;18.95;;;;;;;10.09;55.62;100666.84;1729276;81;21082;-67
2021/11/12 15:06:37;;;;;;;30.75;19.85;;;;;;;10.08;55.71;100668.64;1760247;81;21817;-67
2021/11/12 15:09:15;;;;;;;29.37;19.45;;;;;;;10.06;55.85;100677.16;1767570;80;21036;-68
2021/11/12 15:11:34;;;;;;;31.75;20.57;;;;;;;10.06;55.87;100679.80;1754090;80;21055;-68
2021/11/12 15:14:11;;;;;;;25.27;18.40;;;;;;;10.03;56.02;100682.16;1759853;80;21008;-70
2021/11/12 15:16:35;;;;;;;31.10;20.10;;;;;;;10.02;56.14;100682.27;1759651;80;21564;-71
2021/11/12 15:19:05;;;;;;;30.43;20.82;;;;;;;10.00;56.29;100680.22;1759079;80;21309;-68
2021/11/12 15:21:36;;;;;;;25.75;18.60;;;;;;;10.01;56.34;100680.58;1740111;82;21012;-68
2021/11/12 15:31:59;;;;;;;30.45;23.62;;;;;;;9.96;56.63;100688.84;1741039;81;22238;-70
2021/11/12 15:34:07;;;;;;;25.00;19.30;;;;;;;9.95;56.74;100695.08;1751563;81;21025;-68
2021/11/12 15:36:34;;;;;;;26.07;19.60;;;;;;;9.93;56.81;100696.12;1758419;81;21070;-70
2021/11/12 15:39:11;;;;;;;26.42;19.90;;;;;;;9.90;56.91;100695.03;1758889;81;21017;-66
2021/11/12 15:44:13;;;;;;;29.98;21.93;;;;;;;9.85;57.14;100695.38;1759640;81;21792;-66
2021/11/12 15:46:39;;;;;;;27.02;20.50;;;;;;;9.84;57.17;100696.77;1759496;81;21061;-67
2021/11/12 15:49:00;;;;;;;30.88;23.05;;;;;;;9.84;57.31;100699.41;1759875;81;21045;-65
2021/11/12 15:51:36;;;;;;;34.27;25.12;;;;;;;9.83;57.36;100702.53;1755596;81;20995;-66
2021/11/12 15:59:38;;;;;;;30.20;21.55;;;;;;;9.81;57.51;100708.88;1778675;80;20972;-67
2021/11/12 16:12:54;;;;;;;30.37;22.77;;;;;;;9.68;58.01;100716.82;1761759;81;20912;-66
2021/11/12 16:15:32;;;;;;;32.40;23.40;;;;;;;9.63;58.18;100720.23;1761187;81;21016;-66
2021/11/12 16:18:17;;;;;;;29.18;21.35;;;;;;;9.56;58.34;100719.84;1759763;81;21039;-66
2021/11/12 16:26:16;;;;;;;31.02;23.52;;;;;;;9.43;58.71;100730.38;1762034;81;21400;-67
2021/11/12 16:28:56;;;;;;;27.45;21.17;;;;;;;9.38;58.87;100739.09;1760775;81;21051;-67